Time;durP1;ratioP1;P1;durP2;ratioP2;P2;SDS_P1;SDS_P2;PMS_P1;PMS_P2;Temp;Humidity;BMP_temperature;BMP_pressure;BME280_temperature;BME280_humidity;BME280_pressure;Samples;Min_cycle;Max_cycle;Signal;HPM_P1;HPM_P2
2023/06/08 00:00:03;;;;;;;;;;;;;;;18.32;63.83;99747.44;5091288;28;20551;-36
2023/06/08 00:02:29;;;;;;;;;;;;;;;18.35;63.96;99744.25;5091108;28;20391;-36
2023/06/08 00:04:54;;;;;;;;;;;;;;;18.12;64.77;99744.53;5091203;28;19912;-36
2023/06/08 00:07:21;;;;;;;;;;;;;;;17.77;65.58;99738.47;5091260;28;20363;-35
2023/06/08 00:09:47;;;;;;;;;;;;;;;17.96;65.56;99738.19;5091197;28;19912;-36
2023/06/08 00:12:12;;;;;;;;;;;;;;;17.65;66.53;99739.63;5091122;28;20007;-36
2023/06/08 00:14:38;;;;;;;;;;;;;;;18.03;65.49;99743.34;5091111;28;19914;-36
2023/06/08 00:17:04;;;;;;;;;;;;;;;17.81;65.96;99737.97;5090995;28;19919;-36
2023/06/08 00:19:33;;;;;;;;;;;;;;;17.13;68.67;99740.84;5090942;28;19912;-36
2023/06/08 00:21:59;;;;;;;;;;;;;;;17.32;68.71;99731.41;5091089;28;20303;-36
2023/06/08 00:24:25;;;;;;;;;;;;;;;17.30;68.19;99730.06;5090914;28;19930;-36
2023/06/08 00:26:50;;;;;;;;;;;;;;;17.64;67.17;99721.88;5090988;28;19942;-36
2023/06/08 00:29:15;;;;;;;;;;;;;;;17.35;68.45;99730.94;5091078;28;20006;-36
2023/06/08 00:31:41;;;;;;;;;;;;;;;17.50;67.32;99732.22;5090752;28;19928;-36
2023/06/08 00:34:06;;;;;;;;;;;;;;;17.15;68.51;99738.72;5090880;28;19984;-36
2023/06/08 00:36:32;;;;;;;;;;;;;;;17.06;69.52;99730.25;5091509;28;19985;-36
2023/06/08 00:38:57;;;;;;;;;;;;;;;17.06;69.97;99729.44;5091382;28;20065;-36
2023/06/08 00:41:22;;;;;;;;;;;;;;;16.80;70.11;99729.81;5091412;28;19919;-36
2023/06/08 00:43:48;;;;;;;;;;;;;;;16.79;71.02;99732.75;5091074;28;20388;-36
2023/06/08 00:46:13;;;;;;;;;;;;;;;16.93;70.53;99733.28;5091233;28;19920;-36
2023/06/08 00:48:40;;;;;;;;;;;;;;;16.79;70.16;99730.91;5091357;28;19981;-36
2023/06/08 00:51:06;;;;;;;;;;;;;;;16.95;70.82;99725.78;5091370;28;20427;-36
2023/06/08 00:53:32;;;;;;;;;;;;;;;17.24;70.17;99715.72;5091243;28;19912;-36
2023/06/08 00:55:57;;;;;;;;;;;;;;;17.58;67.86;99719.13;5091443;28;19969;-36
2023/06/08 00:58:24;;;;;;;;;;;;;;;17.71;67.29;99717.94;5095599;28;19916;-36
2023/06/08 01:00:49;;;;;;;;;;;;;;;17.64;67.13;99716.50;5095641;28;20001;-36
2023/06/08 01:03:14;;;;;;;;;;;;;;;17.95;66.64;99713.13;5095072;28;20315;-36
2023/06/08 01:05:43;;;;;;;;;;;;;;;17.74;67.05;99714.75;5095038;28;19955;-36
2023/06/08 01:08:27;;;;;;;;;;;;;;;17.90;66.10;99714.97;5095284;28;20057;-37
2023/06/08 01:11:02;;;;;;;;;;;;;;;18.09;65.90;99716.25;5095032;28;19919;-37
2023/06/08 01:13:37;;;;;;;;;;;;;;;18.30;65.25;99716.44;5095049;28;20011;-37
2023/06/08 01:16:03;;;;;;;;;;;;;;;18.47;64.80;99709.06;5094979;28;20390;-37
2023/06/08 01:18:32;;;;;;;;;;;;;;;18.49;64.53;99717.69;5094969;28;19912;-37
2023/06/08 01:21:11;;;;;;;;;;;;;;;18.27;65.56;99720.44;5095073;28;19969;-37
2023/06/08 01:23:55;;;;;;;;;;;;;;;18.15;66.10;99723.28;5094871;28;19962;-37
2023/06/08 01:26:20;;;;;;;;;;;;;;;18.36;65.68;99718.91;5094630;28;20045;-37
2023/06/08 01:28:49;;;;;;;;;;;;;;;18.11;66.63;99716.00;5094836;28;20396;-37
2023/06/08 01:31:15;;;;;;;;;;;;;;;18.23;66.36;99719.34;5094088;28;20023;-37
2023/06/08 01:33:40;;;;;;;;;;;;;;;18.30;66.29;99716.44;5094440;28;19955;-37
2023/06/08 01:36:05;;;;;;;;;;;;;;;18.42;65.87;99713.59;5094859;28;19981;-36
2023/06/08 01:38:36;;;;;;;;;;;;;;;18.53;65.35;99721.50;5094744;28;19912;-36
2023/06/08 01:41:05;;;;;;;;;;;;;;;18.56;65.05;99718.28;5091937;28;20292;-36
2023/06/08 01:43:32;;;;;;;;;;;;;;;18.65;64.92;99718.63;5094702;28;19916;-36
2023/06/08 01:46:00;;;;;;;;;;;;;;;18.68;64.62;99720.81;5094789;28;19916;-36
2023/06/08 01:48:26;;;;;;;;;;;;;;;18.38;65.48;99721.38;5094318;28;19962;-36
2023/06/08 01:50:51;;;;;;;;;;;;;;;18.52;64.87;99725.28;5094507;28;19947;-36
2023/06/08 01:53:17;;;;;;;;;;;;;;;18.66;64.43;99714.88;5094273;28;20001;-36
2023/06/08 01:55:42;;;;;;;;;;;;;;;18.82;64.05;99725.78;5094602;28;20003;-36
2023/06/08 01:58:07;;;;;;;;;;;;;;;18.72;64.00;99718.41;5094371;28;20021;-36
2023/06/08 02:00:32;;;;;;;;;;;;;;;18.75;63.93;99715.19;5094351;28;19912;-36
2023/06/08 02:02:58;;;;;;;;;;;;;;;18.74;63.82;99725.16;5093943;28;19966;-36
2023/06/08 02:05:23;;;;;;;;;;;;;;;18.60;64.02;99729.38;5093663;28;19927;-36
2023/06/08 02:07:48;;;;;;;;;;;;;;;18.62;63.88;99715.63;5093035;28;19912;-35
2023/06/08 02:10:14;;;;;;;;;;;;;;;18.64;64.08;99722.41;5093552;28;19912;-36
2023/06/08 02:12:40;;;;;;;;;;;;;;;18.47;64.66;99711.75;5093860;28;20037;-36
2023/06/08 02:15:06;;;;;;;;;;;;;;;18.61;64.20;99717.50;5093693;28;19973;-35
2023/06/08 02:17:33;;;;;;;;;;;;;;;18.66;63.82;99725.66;5093733;28;20295;-35
2023/06/08 02:20:00;;;;;;;;;;;;;;;18.74;63.65;99718.97;5094079;28;20348;-36
2023/06/08 02:22:27;;;;;;;;;;;;;;;18.64;64.02;99725.09;5093962;28;19912;-36
2023/06/08 02:24:52;;;;;;;;;;;;;;;18.39;64.19;99720.31;5093968;28;19961;-36
2023/06/08 02:27:18;;;;;;;;;;;;;;;18.50;64.25;99713.09;5093798;28;20248;-36
2023/06/08 02:29:43;;;;;;;;;;;;;;;18.48;64.28;99713.34;5093875;28;20340;-36
2023/06/08 02:32:08;;;;;;;;;;;;;;;18.71;63.54;99711.38;5093271;28;20007;-36
2023/06/08 02:34:37;;;;;;;;;;;;;;;18.80;63.58;99715.25;5093188;28;19912;-36
2023/06/08 02:37:03;;;;;;;;;;;;;;;18.75;63.12;99715.19;5093637;28;19916;-36
2023/06/08 02:39:28;;;;;;;;;;;;;;;18.76;63.16;99712.25;5093858;28;19912;-36
2023/06/08 02:41:54;;;;;;;;;;;;;;;18.64;63.33;99708.09;5093139;28;20372;-36
2023/06/08 02:44:19;;;;;;;;;;;;;;;18.58;63.78;99711.81;5093052;28;19912;-36
2023/06/08 02:46:45;;;;;;;;;;;;;;;18.56;64.07;99712.91;5093095;28;19924;-36
2023/06/08 02:49:10;;;;;;;;;;;;;;;18.52;63.89;99722.56;5093792;28;20382;-36
2023/06/08 02:51:35;;;;;;;;;;;;;;;18.55;64.17;99716.66;5093171;28;19924;-36
2023/06/08 02:54:01;;;;;;;;;;;;;;;18.65;63.70;99721.31;5093549;28;19916;-36
2023/06/08 02:56:26;;;;;;;;;;;;;;;18.72;63.72;99713.84;5093060;28;20392;-36
2023/06/08 02:58:52;;;;;;;;;;;;;;;18.74;63.65;99716.28;5092843;28;20319;-36
2023/06/08 03:01:17;;;;;;;;;;;;;;;18.62;64.11;99716.47;5092843;28;19919;-36
2023/06/08 03:03:43;;;;;;;;;;;;;;;18.63;63.66;99719.97;5093006;28;19912;-36
2023/06/08 03:06:09;;;;;;;;;;;;;;;18.54;64.43;99725.81;5092824;28;20292;-36
2023/06/08 03:08:36;;;;;;;;;;;;;;;18.61;63.72;99725.59;5092686;28;19916;-36
2023/06/08 03:11:01;;;;;;;;;;;;;;;18.69;64.47;99727.81;5092926;28;19912;-36
2023/06/08 03:13:27;;;;;;;;;;;;;;;18.78;63.84;99728.16;5092541;28;19935;-36
2023/06/08 03:15:52;;;;;;;;;;;;;;;18.70;67.02;99729.44;5092099;28;19912;-36
2023/06/08 03:18:18;;;;;;;;;;;;;;;18.97;65.30;99733.19;5092935;28;19919;-36
2023/06/08 03:20:43;;;;;;;;;;;;;;;19.07;63.08;99739.44;5092556;28;20000;-36
2023/06/08 03:23:09;;;;;;;;;;;;;;;19.53;62.76;99728.94;5092673;28;19951;-36
2023/06/08 03:25:36;;;;;;;;;;;;;;;19.72;62.28;99707.72;5092422;28;19977;-36
2023/06/08 03:28:02;;;;;;;;;;;;;;;20.16;63.48;99730.75;5092459;28;19912;-37
2023/06/08 03:30:27;;;;;;;;;;;;;;;20.56;61.49;99726.53;5091804;28;19927;-36
2023/06/08 03:32:52;;;;;;;;;;;;;;;20.87;59.73;99730.03;5092176;28;20337;-36
2023/06/08 03:35:18;;;;;;;;;;;;;;;21.09;58.85;99728.91;5092555;28;19912;-36
2023/06/08 03:37:43;;;;;;;;;;;;;;;21.39;57.94;99725.34;5091959;28;20408;-35
2023/06/08 03:40:09;;;;;;;;;;;;;;;21.64;56.75;99727.16;5092081;28;19912;-35
2023/06/08 03:42:34;;;;;;;;;;;;;;;21.63;54.68;99722.84;5091605;28;19912;-36
2023/06/08 03:44:59;;;;;;;;;;;;;;;21.92;54.74;99722.16;5091970;28;19923;-35
2023/06/08 03:47:25;;;;;;;;;;;;;;;22.12;54.20;99729.34;5090546;28;19916;-42
2023/06/08 03:49:51;;;;;;;;;;;;;;;22.39;53.31;99733.53;5091957;28;19920;-42
2023/06/08 03:52:16;;;;;;;;;;;;;;;22.65;52.57;99734.16;5092208;28;19919;-41
2023/06/08 03:54:42;;;;;;;;;;;;;;;22.83;52.02;99741.63;5092006;28;19912;-42
2023/06/08 03:57:07;;;;;;;;;;;;;;;23.07;51.23;99743.59;5092164;28;20360;-42
2023/06/08 03:59:32;;;;;;;;;;;;;;;23.25;51.07;99736.63;5091666;28;20320;-42
2023/06/08 04:01:57;;;;;;;;;;;;;;;23.34;50.86;99732.19;5091602;28;19912;-41
2023/06/08 04:04:28;;;;;;;;;;;;;;;23.46;50.33;99747.28;5091700;28;19934;-43
2023/06/08 04:06:54;;;;;;;;;;;;;;;23.57;49.37;99740.59;5091559;28;20407;-45
2023/06/08 04:09:19;;;;;;;;;;;;;;;23.66;49.17;99740.78;5091633;28;20048;-42
2023/06/08 04:11:45;;;;;;;;;;;;;;;23.81;48.86;99741.41;5091482;28;19951;-42
2023/06/08 04:14:10;;;;;;;;;;;;;;;24.02;48.54;99735.72;5091083;28;20352;-42
2023/06/08 04:16:36;;;;;;;;;;;;;;;24.44;47.72;99742.16;5090963;28;19923;-42
2023/06/08 04:19:02;;;;;;;;;;;;;;;24.58;46.48;99745.78;5090340;28;19920;-43
2023/06/08 04:21:27;;;;;;;;;;;;;;;24.65;46.97;99745.41;5090211;28;19971;-43
2023/06/08 04:23:52;;;;;;;;;;;;;;;24.30;47.90;99742.13;5090700;28;20299;-42
2023/06/08 04:26:17;;;;;;;;;;;;;;;24.67;46.00;99748.63;5091466;28;19982;-43
2023/06/08 04:28:44;;;;;;;;;;;;;;;25.04;45.83;99741.47;5091207;28;19969;-44
2023/06/08 04:31:09;;;;;;;;;;;;;;;25.38;45.81;99750.41;5087840;28;19924;-42
2023/06/08 04:33:35;;;;;;;;;;;;;;;25.53;45.30;99747.38;5091614;28;19912;-41
2023/06/08 04:36:01;;;;;;;;;;;;;;;25.36;44.84;99751.53;5091283;28;19916;-43
2023/06/08 04:38:27;;;;;;;;;;;;;;;25.48;44.87;99750.22;5091428;28;19918;-36
2023/06/08 04:40:53;;;;;;;;;;;;;;;25.58;44.20;99743.75;5091643;28;19981;-37
2023/06/08 04:43:20;;;;;;;;;;;;;;;25.33;44.25;99748.59;5091077;28;19912;-35
2023/06/08 04:45:47;;;;;;;;;;;;;;;25.30;44.61;99746.47;5091393;28;20344;-37
2023/06/08 04:48:13;;;;;;;;;;;;;;;25.19;45.41;99754.00;5091451;28;19940;-36
2023/06/08 04:50:45;;;;;;;;;;;;;;;24.85;45.92;99749.72;5091353;28;20304;-37
2023/06/08 04:53:11;;;;;;;;;;;;;;;25.42;44.48;99743.25;5087978;28;20022;-36
2023/06/08 04:55:37;;;;;;;;;;;;;;;25.52;43.72;99746.59;5086063;28;19912;-35
2023/06/08 04:58:02;;;;;;;;;;;;;;;25.78;43.34;99747.97;5092725;28;20010;-37
2023/06/08 05:00:27;;;;;;;;;;;;;;;26.08;42.89;99749.25;5092434;28;19919;-36
2023/06/08 05:02:53;;;;;;;;;;;;;;;26.27;42.34;99749.09;5096169;28;20098;-36
2023/06/08 05:05:18;;;;;;;;;;;;;;;25.56;43.65;99750.31;5090723;28;19912;-37
2023/06/08 05:07:43;;;;;;;;;;;;;;;26.30;42.70;99749.31;5102539;28;19945;-37
2023/06/08 05:10:09;;;;;;;;;;;;;;;26.41;42.55;99760.78;5111461;28;19912;-37
2023/06/08 05:12:34;;;;;;;;;;;;;;;27.15;40.66;99756.81;5111311;28;19996;-35
2023/06/08 05:15:02;;;;;;;;;;;;;;;27.03;40.63;99767.50;5111621;28;20003;-36
2023/06/08 05:17:27;;;;;;;;;;;;;;;27.52;39.90;99762.91;5094777;28;20342;-36
2023/06/08 05:19:53;;;;;;;;;;;;;;;27.65;39.29;99769.41;5093246;28;19923;-36
2023/06/08 05:22:18;;;;;;;;;;;;;;;27.93;38.20;99769.16;5104771;28;19912;-36
2023/06/08 05:24:43;;;;;;;;;;;;;;;28.18;38.13;99760.19;5091591;28;20279;-36
2023/06/08 05:27:09;;;;;;;;;;;;;;;28.45;37.17;99753.59;5092201;28;20037;-36
2023/06/08 05:29:35;;;;;;;;;;;;;;;28.57;36.92;99769.38;5107815;28;20341;-36
2023/06/08 05:32:00;;;;;;;;;;;;;;;28.92;36.68;99766.59;5096298;28;19945;-36
2023/06/08 05:34:26;;;;;;;;;;;;;;;28.41;37.34;99762.78;5105398;28;20368;-36
2023/06/08 05:36:51;;;;;;;;;;;;;;;28.89;36.80;99769.19;5092366;28;19923;-37
2023/06/08 05:39:17;;;;;;;;;;;;;;;29.22;36.32;99770.22;5091678;28;19912;-36
2023/06/08 05:41:43;;;;;;;;;;;;;;;30.11;34.64;99763.97;5093896;28;19912;-36
2023/06/08 05:44:08;;;;;;;;;;;;;;;30.58;34.31;99771.22;5099821;28;20056;-37
2023/06/08 05:46:33;;;;;;;;;;;;;;;30.75;33.37;99775.75;5106458;28;20416;-37
2023/06/08 05:48:58;;;;;;;;;;;;;;;30.49;33.63;99774.03;5094185;28;19931;-37
2023/06/08 05:51:24;;;;;;;;;;;;;;;30.76;32.67;99766.34;5102831;28;20489;-37
2023/06/08 05:53:49;;;;;;;;;;;;;;;30.33;32.93;99773.88;5094213;28;19916;-37
2023/06/08 05:56:15;;;;;;;;;;;;;;;30.17;33.49;99772.81;5098621;28;20445;-36
2023/06/08 05:58:40;;;;;;;;;;;;;;;30.49;33.09;99776.00;5099025;28;19938;-37
2023/06/08 06:01:06;;;;;;;;;;;;;;;30.89;32.42;99769.94;5100790;28;20328;-37
2023/06/08 06:03:32;;;;;;;;;;;;;;;30.33;32.73;99770.28;5092719;28;20310;-36
2023/06/08 06:05:58;;;;;;;;;;;;;;;30.39;32.64;99775.25;5092010;28;19916;-36
2023/06/08 06:08:23;;;;;;;;;;;;;;;30.13;32.82;99766.41;5092464;28;19947;-37
2023/06/08 06:10:49;;;;;;;;;;;;;;;29.97;33.39;99764.25;5089248;28;20363;-36
2023/06/08 06:13:14;;;;;;;;;;;;;;;30.18;33.07;99763.47;5092781;28;20296;-37
2023/06/08 06:15:40;;;;;;;;;;;;;;;30.70;32.45;99762.22;5092738;28;19915;-36
2023/06/08 06:18:05;;;;;;;;;;;;;;;30.43;32.74;99767.16;5092241;28;19912;-37
2023/06/08 06:20:30;;;;;;;;;;;;;;;30.91;32.00;99756.72;5092990;28;19934;-36
2023/06/08 06:22:56;;;;;;;;;;;;;;;31.31;31.26;99747.84;5092731;28;20340;-36
2023/06/08 06:25:21;;;;;;;;;;;;;;;31.30;31.94;99754.47;5098235;28;20429;-37
2023/06/08 06:27:47;;;;;;;;;;;;;;;31.10;31.80;99753.44;5089545;28;20006;-36
2023/06/08 06:30:12;;;;;;;;;;;;;;;30.38;32.80;99759.13;5093957;28;19963;-36
2023/06/08 06:32:37;;;;;;;;;;;;;;;31.12;31.63;99746.44;5095559;28;19928;-36
2023/06/08 06:35:03;;;;;;;;;;;;;;;31.43;31.54;99745.06;5092993;28;19916;-36
2023/06/08 06:37:34;;;;;;;;;;;;;;;31.83;30.74;99743.59;5094855;28;20394;-37
2023/06/08 06:39:59;;;;;;;;;;;;;;;32.03;30.29;99737.16;5090879;28;19922;-36
2023/06/08 06:42:25;;;;;;;;;;;;;;;31.53;31.05;99741.13;5091801;28;19916;-36
2023/06/08 06:44:50;;;;;;;;;;;;;;;31.83;31.53;99730.63;5091963;28;19928;-37
2023/06/08 06:47:15;;;;;;;;;;;;;;;32.33;30.20;99734.09;5091000;28;19942;-38
2023/06/08 06:49:41;;;;;;;;;;;;;;;32.90;29.09;99732.09;5090969;28;19973;-36
2023/06/08 06:52:06;;;;;;;;;;;;;;;33.41;28.46;99728.63;5090654;28;19912;-36
2023/06/08 06:54:32;;;;;;;;;;;;;;;32.04;30.54;99729.69;5091251;28;19961;-36
2023/06/08 06:56:57;;;;;;;;;;;;;;;32.51;29.33;99724.34;5091855;28;19912;-36
2023/06/08 06:59:23;;;;;;;;;;;;;;;32.58;28.81;99720.22;5092282;28;20338;-37
2023/06/08 07:01:48;;;;;;;;;;;;;;;32.21;29.28;99723.13;5091548;28;20292;-37
2023/06/08 07:04:15;;;;;;;;;;;;;;;32.00;29.73;99721.31;5091677;28;20292;-37
2023/06/08 07:06:42;;;;;;;;;;;;;;;32.39;28.96;99721.66;5092209;28;20456;-36
2023/06/08 07:09:08;;;;;;;;;;;;;;;32.51;28.92;99712.53;5091882;28;19913;-37
2023/06/08 07:11:33;;;;;;;;;;;;;;;32.52;29.22;99723.22;5092087;28;19912;-37
2023/06/08 07:13:58;;;;;;;;;;;;;;;32.87;28.74;99722.56;5092059;28;20006;-37
2023/06/08 07:16:24;;;;;;;;;;;;;;;32.25;29.33;99722.06;5091847;28;19995;-36
2023/06/08 07:18:50;;;;;;;;;;;;;;;31.54;30.73;99716.00;5091909;28;19948;-37
2023/06/08 07:21:19;;;;;;;;;;;;;;;32.18;30.19;99715.53;5091913;28;19912;-37
2023/06/08 07:23:45;;;;;;;;;;;;;;;32.61;29.32;99720.31;5091734;28;19912;-37
2023/06/08 07:26:11;;;;;;;;;;;;;;;33.02;28.68;99715.47;5091685;28;19941;-36
2023/06/08 07:28:37;;;;;;;;;;;;;;;33.19;27.87;99717.09;5091716;28;19916;-37
2023/06/08 07:31:03;;;;;;;;;;;;;;;32.76;29.29;99712.44;5091320;28;19925;-36
2023/06/08 07:33:28;;;;;;;;;;;;;;;33.03;28.82;99711.56;5091559;28;19908;-36
2023/06/08 07:35:54;;;;;;;;;;;;;;;34.00;27.52;99707.50;5091511;28;20060;-36
2023/06/08 07:38:19;;;;;;;;;;;;;;;33.82;27.29;99707.16;5091631;28;19969;-36
2023/06/08 07:40:44;;;;;;;;;;;;;;;33.84;27.12;99705.59;5091154;28;19915;-36
2023/06/08 07:43:10;;;;;;;;;;;;;;;33.66;27.28;99704.41;5091463;28;19919;-35
2023/06/08 07:45:35;;;;;;;;;;;;;;;32.38;29.10;99697.25;5091146;28;19912;-35
2023/06/08 07:48:00;;;;;;;;;;;;;;;30.71;31.02;99697.91;5091534;28;19920;-36
2023/06/08 07:50:25;;;;;;;;;;;;;;;31.02;31.64;99689.19;5091339;28;19916;-36
2023/06/08 07:52:51;;;;;;;;;;;;;;;32.17;29.52;99687.22;5090872;28;19938;-36
2023/06/08 07:55:16;;;;;;;;;;;;;;;31.00;30.71;99694.22;5091357;28;19912;-36
2023/06/08 07:57:44;;;;;;;;;;;;;;;31.19;30.81;99688.19;5090924;28;19944;-36
2023/06/08 08:00:09;;;;;;;;;;;;;;;30.49;32.06;99690.88;5091024;28;19912;-36
2023/06/08 08:02:35;;;;;;;;;;;;;;;30.94;30.53;99687.38;5091044;28;19912;-35
2023/06/08 08:05:00;;;;;;;;;;;;;;;31.38;30.60;99693.88;5089746;28;20380;-36
2023/06/08 08:07:25;;;;;;;;;;;;;;;31.15;30.00;99687.25;5089999;28;20340;-36
2023/06/08 08:09:51;;;;;;;;;;;;;;;31.43;30.09;99684.59;5090792;28;19916;-36
2023/06/08 08:12:16;;;;;;;;;;;;;;;30.96;30.21;99687.81;5090504;28;19919;-34
2023/06/08 08:14:41;;;;;;;;;;;;;;;31.75;29.83;99685.59;5090429;28;20014;-36
2023/06/08 08:17:06;;;;;;;;;;;;;;;31.98;29.54;99687.03;5090773;28;19912;-36
2023/06/08 08:19:32;;;;;;;;;;;;;;;31.89;28.78;99684.41;5090952;28;20355;-36
2023/06/08 08:21:57;;;;;;;;;;;;;;;31.51;29.49;99677.41;5090849;28;19912;-35
2023/06/08 08:24:22;;;;;;;;;;;;;;;31.04;30.04;99684.16;5090756;28;19987;-37
2023/06/08 08:26:47;;;;;;;;;;;;;;;30.31;30.99;99677.31;5090842;28;20028;-37
2023/06/08 08:29:13;;;;;;;;;;;;;;;30.35;31.17;99675.53;5090190;28;20354;-36
2023/06/08 08:31:38;;;;;;;;;;;;;;;31.22;30.46;99670.97;5089737;28;19999;-35
2023/06/08 08:34:04;;;;;;;;;;;;;;;31.85;29.61;99669.75;5090358;28;20393;-35
2023/06/08 08:36:29;;;;;;;;;;;;;;;32.40;29.00;99676.44;5090548;28;19912;-36
2023/06/08 08:38:54;;;;;;;;;;;;;;;32.16;29.51;99680.13;5090288;28;19943;-36
2023/06/08 08:41:20;;;;;;;;;;;;;;;31.56;30.62;99666.97;5090496;28;20006;-35
2023/06/08 08:43:46;;;;;;;;;;;;;;;31.36;30.60;99671.44;5090675;28;19969;-38
2023/06/08 08:46:11;;;;;;;;;;;;;;;31.33;31.05;99652.09;5090415;28;19916;-35
2023/06/08 08:48:44;;;;;;;;;;;;;;;30.65;31.20;99669.06;5089981;28;20356;-36
2023/06/08 08:51:18;;;;;;;;;;;;;;;30.11;32.30;99653.44;5090657;28;19912;-36
2023/06/08 08:53:45;;;;;;;;;;;;;;;30.54;31.77;99663.19;5090971;28;19912;-36
2023/06/08 08:56:12;;;;;;;;;;;;;;;30.07;32.49;99663.50;5090384;28;19916;-36
2023/06/08 08:58:38;;;;;;;;;;;;;;;29.63;32.85;99661.84;5090050;28;19912;-36
2023/06/08 09:01:05;;;;;;;;;;;;;;;28.89;35.10;99668.66;5090779;28;19912;-42
2023/06/08 09:03:30;;;;;;;;;;;;;;;29.14;34.06;99664.22;5090250;28;19916;-43
2023/06/08 09:05:55;;;;;;;;;;;;;;;28.88;35.16;99656.09;5089914;28;19923;-42
2023/06/08 09:08:22;;;;;;;;;;;;;;;29.37;34.36;99653.00;5090159;28;19916;-43
2023/06/08 09:11:06;;;;;;;;;;;;;;;28.74;34.22;99656.31;5089744;28;19922;-42
2023/06/08 09:13:33;;;;;;;;;;;;;;;28.60;34.80;99653.78;5088572;28;20272;-42
2023/06/08 09:16:11;;;;;;;;;;;;;;;28.34;34.79;99659.28;5090140;28;19935;-42
2023/06/08 09:18:36;;;;;;;;;;;;;;;27.40;36.26;99645.25;5093228;28;20332;-43
2023/06/08 09:21:21;;;;;;;;;;;;;;;27.94;35.69;99636.81;5093934;28;19912;-44
2023/06/08 09:24:03;;;;;;;;;;;;;;;28.78;34.42;99643.56;5094129;28;19919;-42
2023/06/08 09:26:31;;;;;;;;;;;;;;;29.11;34.33;99634.75;5093966;28;20498;-44
2023/06/08 09:28:56;;;;;;;;;;;;;;;29.15;33.56;99641.19;5093961;28;19916;-43
2023/06/08 09:31:21;;;;;;;;;;;;;;;29.11;33.83;99633.94;5093705;28;19924;-43
2023/06/08 09:33:47;;;;;;;;;;;;;;;28.82;33.45;99635.50;5093551;28;19912;-41
2023/06/08 09:36:15;;;;;;;;;;;;;;;28.43;34.93;99632.72;5093793;28;20202;-42
2023/06/08 09:38:42;;;;;;;;;;;;;;;28.75;34.20;99637.94;5093701;28;19940;-41
2023/06/08 09:41:10;;;;;;;;;;;;;;;29.82;32.76;99620.28;5093717;28;19923;-42
2023/06/08 09:43:35;;;;;;;;;;;;;;;30.55;31.92;99616.19;5093713;28;20303;-42
2023/06/08 09:46:00;;;;;;;;;;;;;;;29.58;32.58;99618.19;5093354;28;19916;-42
2023/06/08 09:48:25;;;;;;;;;;;;;;;29.68;31.60;99616.97;5093593;28;19912;-43
2023/06/08 09:50:59;;;;;;;;;;;;;;;30.48;31.33;99613.22;5093429;28;19916;-36
2023/06/08 09:53:26;;;;;;;;;;;;;;;30.92;31.11;99621.78;5093400;28;19916;-36
2023/06/08 09:55:53;;;;;;;;;;;;;;;29.90;32.52;99615.88;5093202;28;20391;-37
2023/06/08 09:58:20;;;;;;;;;;;;;;;30.37;32.37;99603.84;5092803;28;20388;-37
2023/06/08 10:00:47;;;;;;;;;;;;;;;29.38;33.84;99603.34;5093083;28;19919;-37
2023/06/08 10:03:30;;;;;;;;;;;;;;;29.67;33.41;99607.16;5093198;28;19924;-36
2023/06/08 10:05:57;;;;;;;;;;;;;;;30.13;33.14;99597.09;5092895;28;19916;-36
2023/06/08 10:08:24;;;;;;;;;;;;;;;29.59;33.64;99594.34;5093208;28;20402;-36
2023/06/08 10:10:49;;;;;;;;;;;;;;;30.28;32.44;99589.38;5093131;28;19919;-36
2023/06/08 10:13:15;;;;;;;;;;;;;;;29.74;33.81;99595.66;5093479;28;19912;-37
2023/06/08 10:15:41;;;;;;;;;;;;;;;29.34;33.98;99583.22;5093363;28;20320;-36
2023/06/08 10:18:07;;;;;;;;;;;;;;;29.98;32.75;99586.75;5093342;28;19923;-36
2023/06/08 10:20:32;;;;;;;;;;;;;;;30.72;32.66;99578.69;5093077;28;19912;-36
2023/06/08 10:22:59;;;;;;;;;;;;;;;30.71;31.56;99560.59;5093249;28;19919;-38
2023/06/08 10:25:28;;;;;;;;;;;;;;;30.93;31.55;99571.16;5092386;28;20413;-36
2023/06/08 10:27:53;;;;;;;;;;;;;;;30.98;30.81;99567.41;5092820;28;19920;-35
2023/06/08 10:30:29;;;;;;;;;;;;;;;30.57;30.38;99563.69;5091639;28;20482;-36
2023/06/08 10:33:06;;;;;;;;;;;;;;;30.50;30.87;99560.72;5092467;28;19948;-36
2023/06/08 10:35:31;;;;;;;;;;;;;;;30.43;31.41;99558.53;5092457;28;20410;-36
2023/06/08 10:38:06;;;;;;;;;;;;;;;29.53;32.86;99554.53;5092371;28;20396;-37
2023/06/08 10:40:40;;;;;;;;;;;;;;;30.69;30.87;99543.69;5092553;28;20403;-36
2023/06/08 10:43:07;;;;;;;;;;;;;;;31.49;30.22;99536.72;5092155;28;19912;-37
2023/06/08 10:45:35;;;;;;;;;;;;;;;31.22;30.84;99539.06;5092499;28;19985;-36
2023/06/08 10:48:04;;;;;;;;;;;;;;;31.47;30.61;99534.34;5092591;28;19922;-37
2023/06/08 10:50:31;;;;;;;;;;;;;;;30.16;32.45;99533.31;5092522;28;20007;-35
2023/06/08 10:52:58;;;;;;;;;;;;;;;30.24;32.53;99523.38;5092248;28;20534;-37
2023/06/08 10:55:25;;;;;;;;;;;;;;;30.64;31.74;99524.72;5092324;28;19912;-36
2023/06/08 10:57:52;;;;;;;;;;;;;;;29.58;32.88;99526.94;5091844;28;19912;-36
2023/06/08 11:00:31;;;;;;;;;;;;;;;28.27;34.87;99524.91;5091784;28;19919;-37
2023/06/08 11:02:58;;;;;;;;;;;;;;;29.31;33.63;99511.84;5091991;28;19912;-35
2023/06/08 11:05:23;;;;;;;;;;;;;;;28.91;34.79;99510.31;5092325;28;19965;-37
2023/06/08 11:07:49;;;;;;;;;;;;;;;29.88;32.90;99508.44;5091378;28;19970;-36
2023/06/08 11:10:15;;;;;;;;;;;;;;;29.36;33.89;99515.19;5091590;28;19915;-36
2023/06/08 11:12:40;;;;;;;;;;;;;;;28.82;33.86;99498.59;5092121;28;19919;-35
2023/06/08 11:15:06;;;;;;;;;;;;;;;28.81;34.17;99506.03;5091893;28;19912;-35
2023/06/08 11:17:39;;;;;;;;;;;;;;;29.26;33.59;99499.13;5091593;28;20005;-35
2023/06/08 11:20:07;;;;;;;;;;;;;;;29.66;32.32;99497.81;5091681;28;19926;-36
2023/06/08 11:22:32;;;;;;;;;;;;;;;29.68;32.20;99498.28;5091645;28;20002;-36
2023/06/08 11:24:57;;;;;;;;;;;;;;;29.89;32.57;99485.38;5091520;28;19991;-36
2023/06/08 11:27:23;;;;;;;;;;;;;;;29.59;32.73;99490.16;5091624;28;19916;-36
2023/06/08 11:29:48;;;;;;;;;;;;;;;29.53;32.74;99489.56;5091125;28;19916;-36
2023/06/08 11:32:15;;;;;;;;;;;;;;;29.60;32.65;99492.53;5091371;28;19924;-37
2023/06/08 11:34:49;;;;;;;;;;;;;;;28.55;34.20;99497.16;5091291;28;19978;-36
2023/06/08 11:37:16;;;;;;;;;;;;;;;29.52;32.83;99485.22;5091470;28;20014;-37
2023/06/08 11:39:45;;;;;;;;;;;;;;;29.15;33.29;99492.44;5091047;28;20011;-36
2023/06/08 11:42:10;;;;;;;;;;;;;;;29.11;33.12;99495.06;5091038;28;19912;-37
2023/06/08 11:44:36;;;;;;;;;;;;;;;29.62;31.45;99484.00;5091261;28;19908;-37
2023/06/08 11:47:01;;;;;;;;;;;;;;;29.54;31.02;99477.47;5091161;28;19947;-36
2023/06/08 11:49:26;;;;;;;;;;;;;;;29.56;29.32;99477.13;5090534;28;19912;-36
2023/06/08 11:51:53;;;;;;;;;;;;;;;29.71;29.51;99473.75;5090791;28;19927;-36
2023/06/08 11:54:18;;;;;;;;;;;;;;;30.22;29.70;99462.56;5091462;28;20077;-36
2023/06/08 11:56:45;;;;;;;;;;;;;;;29.78;29.77;99475.97;5090861;28;19999;-36
2023/06/08 11:59:15;;;;;;;;;;;;;;;29.26;30.84;99476.41;5091015;28;19912;-36
2023/06/08 12:01:59;;;;;;;;;;;;;;;29.58;30.38;99461.13;5090831;28;19951;-36
2023/06/08 12:04:33;;;;;;;;;;;;;;;30.90;29.25;99467.50;5091053;28;19922;-37
2023/06/08 12:07:07;;;;;;;;;;;;;;;30.40;28.55;99458.47;5090779;28;20292;-37
2023/06/08 12:09:32;;;;;;;;;;;;;;;29.52;29.12;99459.75;5090885;28;19943;-37
2023/06/08 12:12:07;;;;;;;;;;;;;;;29.82;28.89;99461.25;5090519;28;19923;-36
2023/06/08 12:14:33;;;;;;;;;;;;;;;29.82;27.66;99452.22;5090843;28;20041;-36
2023/06/08 12:17:02;;;;;;;;;;;;;;;29.65;28.59;99444.94;5090627;28;19981;-36
2023/06/08 12:19:28;;;;;;;;;;;;;;;30.19;29.26;99442.06;5090853;28;19923;-37
2023/06/08 12:21:54;;;;;;;;;;;;;;;30.32;29.77;99445.66;5089407;28;20068;-37
2023/06/08 12:24:20;;;;;;;;;;;;;;;31.17;28.24;99432.94;5087957;28;20010;-37
2023/06/08 12:26:45;;;;;;;;;;;;;;;30.77;29.20;99427.44;5089411;28;19916;-36
2023/06/08 12:29:10;;;;;;;;;;;;;;;30.66;28.69;99431.81;5089335;28;20067;-36
2023/06/08 12:31:36;;;;;;;;;;;;;;;30.47;28.84;99435.94;5089721;28;19924;-36
2023/06/08 12:34:02;;;;;;;;;;;;;;;30.42;28.46;99419.69;5089446;28;19923;-36
2023/06/08 12:36:28;;;;;;;;;;;;;;;30.78;27.79;99440.00;5089537;28;19916;-37
2023/06/08 12:38:55;;;;;;;;;;;;;;;30.62;26.77;99411.69;5090147;28;19912;-35
2023/06/08 12:41:22;;;;;;;;;;;;;;;29.94;29.18;99424.81;5090177;28;19923;-36
2023/06/08 12:43:48;;;;;;;;;;;;;;;29.21;29.99;99423.44;5090422;28;20233;-37